windsock image

Welcome to Bigfield Strip.

anemometer image
     

 Help for dials.  
 
Local Met:

Wind:   
10 Min average:  
306 ° / 1.3 kts (0.0)
307° / 1.5

Temperature:  
15.3°C C
Dew Point:  
9.8°C C
QNH:  
Trend:  
1009.7 mb mb
+0.0mb/hr
BigField Strip. This image updates approximately every minute, it can have a two minute delay.  
 

Humidity:  
70 %
Sunrise:   06:03z
Sunset:   17:42z
Updated:  
  UTC
 
   More met info, trends, radar, history etc. available here   

LUTON Metar   EGGW 301620Z AUTO 24009KT 9999 NCD 16/08 Q1010
 
  TAF   2016/09/30 12:15 TAF TAF EGGW 301100Z 3012/0112 24012KT 9999 FEW045 PROB30 TEMPO 3012/3017 7000 SHRA BECMG 0103/0106 15005KT TEMPO 0110/0112 7000 SHRA PROB30 TEMPO 0110/0112 3000 +SHRA BKN012CB
 
BENSON Metar   EGUB 301550Z AUTO 26007KT 9999 // BKN047/// 17/07 Q1010
 
  TAF   2016/09/30 15:33 TAF TAF EGUB 301521Z 3015/3018 CNL
 
Big Field view 1 icon   Big Field view 2 icon   Big Field view 3 icon   Chart AL3a in PDF icon   Chart AL3a in Word icon

WARNING:
This information is provided by the Airstrip unofficial weather station, DO NOT depend on the data provided here for any purpose.
This page is updated for latest Metars & TAF's every 5 minutes. Refresh the browser to check for the lastest.
Page designed for a minimum browser size of 1024x768.
© Copyright 2016 BigField Strip. This page auto generated 16:46 UTC - 30/09/2016   Contact Us
Valid HTML 4.01 Transitional     Windows uptime: 4 Days 14 Hours 14 Minutes 24 Seconds    WD started: 02:37 26/09/16    Free memory: 1513MB     Valid CSS!